Time;durP1;ratioP1;P1;durP2;ratioP2;P2;SDS_P1;SDS_P2;PMS_P1;PMS_P2;Temp;Humidity;BMP_temperature;BMP_pressure;BME280_temperature;BME280_humidity;BME280_pressure;Samples;Min_cycle;Max_cycle;Signal;HPM_P1;HPM_P2
2022/09/18 00:01:36;;;;;;;5.93;1.13;;;9.70;99.90;;;;;;5087524;28;20044;-72
2022/09/18 00:04:04;;;;;;;9.13;1.38;;;9.70;99.90;;;;;;5090876;28;20467;-72
2022/09/18 00:06:37;;;;;;;7.65;1.67;;;9.70;99.90;;;;;;5086705;28;20040;-73
2022/09/18 00:09:04;;;;;;;11.45;1.75;;;9.80;99.90;;;;;;5082206;28;20049;-73
2022/09/18 00:11:35;;;;;;;10.13;1.73;;;9.70;99.90;;;;;;5083618;28;20783;-72
2022/09/18 00:14:03;;;;;;;14.07;2.00;;;9.80;99.90;;;;;;5081517;28;20544;-71
2022/09/18 00:16:28;;;;;;;7.13;1.90;;;9.80;99.90;;;;;;5082679;28;20040;-72
2022/09/18 00:18:55;;;;;;;7.43;1.55;;;9.70;99.90;;;;;;5086475;28;20038;-72
2022/09/18 00:21:25;;;;;;;9.27;1.38;;;9.80;99.90;;;;;;5078754;28;20117;-72
2022/09/18 00:23:57;;;;;;;12.57;1.95;;;9.80;99.90;;;;;;5083794;28;20513;-71
2022/09/18 00:26:24;;;;;;;10.52;1.77;;;9.80;99.90;;;;;;5081419;28;20452;-71
2022/09/18 00:28:51;;;;;;;8.27;1.93;;;9.70;99.90;;;;;;5066344;28;20410;-71
2022/09/18 00:31:29;;;;;;;12.55;1.60;;;9.70;99.90;;;;;;5080942;28;20352;-71
2022/09/18 00:33:58;;;;;;;;;;;9.70;99.90;;;;;;5082419;28;20047;-72
2022/09/18 00:36:23;;;;;;;9.07;1.80;;;9.70;99.90;;;;;;5083199;28;19919;-71
2022/09/18 00:38:49;;;;;;;9.70;2.10;;;9.70;99.90;;;;;;5089611;28;20055;-72
2022/09/18 00:41:22;;;;;;;8.77;1.60;;;9.70;99.90;;;;;;5086068;28;20035;-71
2022/09/18 00:43:49;;;;;;;9.60;1.55;;;9.70;99.90;;;;;;5085690;28;20040;-71
2022/09/18 00:46:28;;;;;;;11.55;1.90;;;9.70;99.90;;;;;;5086107;28;20048;-71
2022/09/18 00:49:05;;;;;;;6.88;1.40;;;9.70;99.90;;;;;;5084907;28;20036;-71
2022/09/18 00:51:33;;;;;;;10.67;1.70;;;9.70;99.90;;;;;;5085132;28;20461;-72
2022/09/18 00:54:20;;;;;;;8.43;1.80;;;9.70;99.90;;;;;;5086666;28;20517;-73
2022/09/18 00:56:47;;;;;;;5.32;1.10;;;9.70;99.90;;;;;;5070885;28;20099;-72
2022/09/18 00:59:17;;;;;;;9.63;1.55;;;9.70;99.90;;;;;;5087473;28;20569;-72
2022/09/18 01:01:43;;;;;;;14.45;2.15;;;9.80;99.90;;;;;;5088440;28;20096;-72
2022/09/18 01:04:11;;;;;;;10.80;1.83;;;9.80;99.90;;;;;;5086848;28;20078;-72
2022/09/18 01:06:55;;;;;;;12.32;1.90;;;9.80;99.90;;;;;;5083000;28;20039;-72
2022/09/18 01:09:44;;;;;;;10.32;1.70;;;9.90;99.90;;;;;;5085358;28;20050;-72
2022/09/18 01:12:14;;;;;;;8.80;1.90;;;9.90;99.90;;;;;;5065216;28;20097;-72
2022/09/18 01:15:04;;;;;;;12.90;1.60;;;10.00;99.90;;;;;;5086837;28;20421;-72
2022/09/18 01:17:35;;;;;;;6.47;1.60;;;10.00;99.90;;;;;;5088052;28;20163;-73
2022/09/18 01:20:19;;;;;;;6.93;1.67;;;10.10;99.90;;;;;;5088818;28;20048;-72
2022/09/18 01:23:06;;;;;;;8.35;1.60;;;10.10;99.90;;;;;;5082229;28;20044;-72
2022/09/18 01:25:44;;;;;;;12.00;2.08;;;10.20;99.90;;;;;;5072728;28;20432;-71
2022/09/18 01:28:15;;;;;;;8.65;1.83;;;10.20;99.90;;;;;;5082581;28;20068;-70
2022/09/18 01:30:44;;;;;;;12.07;2.10;;;10.30;99.90;;;;;;5085737;28;20044;-70
2022/09/18 01:33:24;;;;;;;10.55;1.83;;;10.30;99.90;;;;;;5087997;28;20047;-70
2022/09/18 01:35:54;;;;;;;10.65;1.60;;;10.30;99.90;;;;;;5083342;28;20228;-72
2022/09/18 01:38:31;;;;;;;10.95;1.65;;;10.40;99.90;;;;;;5068355;28;20052;-71
2022/09/18 01:41:09;;;;;;;10.18;1.50;;;10.40;99.90;;;;;;5065371;28;20135;-72
2022/09/18 01:43:38;;;;;;;10.70;2.13;;;10.40;99.90;;;;;;5063061;28;20537;-70
2022/09/18 01:46:10;;;;;;;9.50;2.10;;;10.40;99.90;;;;;;5063680;28;20099;-71
2022/09/18 01:48:54;;;;;;;11.02;2.00;;;10.50;99.90;;;;;;5063146;28;20116;-73
2022/09/18 01:51:27;;;;;;;9.00;1.98;;;10.50;99.90;;;;;;5065783;28;20507;-70
2022/09/18 01:54:00;;;;;;;7.10;1.52;;;10.50;99.90;;;;;;5065108;28;20571;-71
2022/09/18 01:56:32;;;;;;;10.88;1.70;;;10.50;99.90;;;;;;5066981;28;20040;-70
2022/09/18 01:59:05;;;;;;;9.60;1.60;;;10.60;99.90;;;;;;5064898;28;20076;-71
2022/09/18 02:01:34;;;;;;;8.57;1.75;;;10.60;99.90;;;;;;5064719;28;20821;-72
2022/09/18 02:04:14;;;;;;;10.18;1.80;;;10.60;99.90;;;;;;5062150;28;20068;-71
2022/09/18 02:06:59;;;;;;;9.07;1.63;;;10.60;99.90;;;;;;5063663;28;20115;-73
2022/09/18 02:09:24;;;;;;;6.95;1.55;;;10.60;99.90;;;;;;5064748;28;20479;-73
2022/09/18 02:11:53;;;;;;;9.38;1.88;;;10.60;99.90;;;;;;5061371;28;20040;-74
2022/09/18 02:14:24;;;;;;;9.98;1.50;;;10.70;99.90;;;;;;5067956;28;20089;-73
2022/09/18 02:17:11;;;;;;;7.05;1.48;;;10.70;99.90;;;;;;5064559;28;20044;-73
2022/09/18 02:19:43;;;;;;;10.63;1.88;;;10.70;99.90;;;;;;5065893;28;20045;-73
2022/09/18 02:22:12;;;;;;;9.93;1.48;;;10.70;99.90;;;;;;5066956;28;20101;-73
2022/09/18 02:24:40;;;;;;;9.70;1.58;;;10.70;99.90;;;;;;5069253;28;20048;-73
2022/09/18 02:27:10;;;;;;;8.45;1.27;;;10.70;99.90;;;;;;5065643;28;20112;-73
2022/09/18 02:29:36;;;;;;;10.52;1.77;;;10.70;99.90;;;;;;5064746;28;20046;-76
2022/09/18 02:32:02;;;;;;;5.95;1.60;;;10.70;99.90;;;;;;5067434;28;20101;-75
2022/09/18 02:34:30;;;;;;;7.65;1.55;;;10.70;99.90;;;;;;5066880;28;20032;-75
2022/09/18 02:37:18;;;;;;;6.38;1.20;;;10.70;99.90;;;;;;5064614;28;20045;-76
2022/09/18 02:39:46;;;;;;;7.10;1.50;;;10.70;99.90;;;;;;5080236;28;20057;-75
2022/09/18 02:42:37;;;;;;;7.90;1.63;;;10.70;99.90;;;;;;5086019;28;20040;-75
2022/09/18 02:45:40;;;;;;;11.60;2.03;;;10.70;99.90;;;;;;5086067;28;20527;-75
2022/09/18 02:48:09;;;;;;;8.30;1.38;;;10.70;99.90;;;;;;5088602;28;20364;-75
2022/09/18 02:50:56;;;;;;;10.38;1.20;;;10.70;99.90;;;;;;5084876;28;20051;-75
2022/09/18 02:54:04;;;;;;;10.00;1.73;;;10.70;99.90;;;;;;5084298;28;20453;-75
2022/09/18 02:56:50;;;;;;;10.65;1.50;;;10.70;99.90;;;;;;5083167;28;20162;-75
2022/09/18 02:59:22;;;;;;;5.72;1.30;;;10.70;99.90;;;;;;5086351;28;20395;-75
2022/09/18 03:01:48;;;;;;;11.35;1.92;;;10.70;99.90;;;;;;5053273;28;20530;-75
2022/09/18 03:04:20;;;;;;;6.88;1.52;;;10.70;99.90;;;;;;5083283;28;20079;-75
2022/09/18 03:06:46;;;;;;;7.80;1.67;;;10.80;99.90;;;;;;5064774;28;20460;-75
2022/09/18 03:09:12;;;;;;;8.15;1.10;;;10.80;99.90;;;;;;5083547;28;20126;-76
2022/09/18 03:11:38;;;;;;;9.60;1.63;;;10.80;99.90;;;;;;5085043;28;20101;-75
2022/09/18 03:14:03;;;;;;;6.50;1.23;;;10.80;99.90;;;;;;5085736;28;20048;-75
2022/09/18 03:16:29;;;;;;;4.68;1.08;;;10.80;99.90;;;;;;5086179;28;20044;-73
2022/09/18 03:18:54;;;;;;;6.25;1.20;;;10.80;99.90;;;;;;5085147;28;20111;-74
2022/09/18 03:21:20;;;;;;;6.57;1.33;;;10.80;99.90;;;;;;5084900;28;20039;-74
2022/09/18 03:23:46;;;;;;;6.60;1.17;;;10.80;99.90;;;;;;5082834;28;20044;-73
2022/09/18 03:26:11;;;;;;;7.55;1.10;;;10.80;99.90;;;;;;5080744;28;20048;-74
2022/09/18 03:28:37;;;;;;;9.05;1.55;;;10.80;99.90;;;;;;5083909;28;20040;-73
2022/09/18 03:31:03;;;;;;;4.85;0.85;;;10.90;99.90;;;;;;5084022;28;20489;-74
2022/09/18 03:33:28;;;;;;;7.22;1.10;;;10.80;99.90;;;;;;5081897;28;20553;-74
2022/09/18 03:35:54;;;;;;;3.97;1.00;;;10.90;99.90;;;;;;5078758;28;20068;-73
2022/09/18 03:38:20;;;;;;;5.60;1.10;;;10.90;99.90;;;;;;5085805;28;20056;-72
2022/09/18 03:40:46;;;;;;;6.05;1.05;;;10.90;99.90;;;;;;5084041;28;20094;-73
2022/09/18 03:43:12;;;;;;;5.40;0.90;;;10.90;99.90;;;;;;5084487;28;20467;-73
2022/09/18 03:45:37;;;;;;;7.43;1.20;;;10.90;99.90;;;;;;5084259;28;20040;-72
2022/09/18 03:48:03;;;;;;;5.75;1.10;;;10.90;99.90;;;;;;5080115;28;21550;-71
2022/09/18 03:50:29;;;;;;;3.47;0.70;;;10.90;99.90;;;;;;5081371;28;20036;-73
2022/09/18 03:52:54;;;;;;;6.75;1.30;;;10.90;99.90;;;;;;5083555;28;20359;-73
2022/09/18 03:55:21;;;;;;;4.65;0.90;;;10.90;99.90;;;;;;5084535;28;20037;-72
2022/09/18 03:57:47;;;;;;;5.28;0.93;;;10.90;99.90;;;;;;5087490;28;20126;-72
2022/09/18 04:00:14;;;;;;;5.00;1.10;;;10.90;99.90;;;;;;5084810;28;20049;-72
2022/09/18 04:02:40;;;;;;;7.35;1.45;;;10.90;99.90;;;;;;5084362;28;20489;-72
2022/09/18 04:05:06;;;;;;;9.18;1.15;;;10.90;99.90;;;;;;5078830;28;20105;-73
2022/09/18 04:07:32;;;;;;;6.10;1.15;;;10.90;99.90;;;;;;5081409;28;20037;-72
2022/09/18 04:09:57;;;;;;;7.35;1.25;;;10.90;99.90;;;;;;5084880;28;20101;-73
2022/09/18 04:12:23;;;;;;;4.43;0.88;;;10.90;99.90;;;;;;5080362;28;20044;-74
2022/09/18 04:14:49;;;;;;;6.10;1.17;;;10.90;99.90;;;;;;5086035;28;20085;-74
2022/09/18 04:17:14;;;;;;;5.40;0.90;;;10.90;99.90;;;;;;5082587;28;20041;-71
2022/09/18 04:19:40;;;;;;;6.22;1.02;;;10.90;99.90;;;;;;5082265;28;20048;-71
2022/09/18 04:22:06;;;;;;;7.43;1.10;;;10.90;99.90;;;;;;5085387;28;20540;-71
2022/09/18 04:24:31;;;;;;;8.88;1.27;;;10.80;99.90;;;;;;5083410;28;20059;-70
2022/09/18 04:26:57;;;;;;;6.82;1.10;;;10.80;99.90;;;;;;5082674;28;20048;-71
2022/09/18 04:29:23;;;;;;;7.93;1.38;;;10.80;99.90;;;;;;5086430;28;20429;-74
2022/09/18 04:31:48;;;;;;;5.68;1.38;;;10.80;99.90;;;;;;5082323;28;20039;-76
2022/09/18 04:34:14;;;;;;;6.97;1.52;;;10.80;99.90;;;;;;5084450;28;20508;-74
2022/09/18 04:36:40;;;;;;;4.60;0.80;;;10.70;99.90;;;;;;5084722;28;20050;-74
2022/09/18 04:39:05;;;;;;;7.45;1.25;;;10.70;99.90;;;;;;5085054;28;20049;-74
2022/09/18 04:41:31;;;;;;;5.28;0.98;;;10.70;99.90;;;;;;5067478;28;20059;-75
2022/09/18 04:43:57;;;;;;;7.25;1.40;;;10.70;99.90;;;;;;5086106;28;20036;-75
2022/09/18 04:46:22;;;;;;;5.95;1.05;;;10.70;99.90;;;;;;5080808;28;20063;-75
2022/09/18 04:48:48;;;;;;;6.28;1.13;;;10.70;99.90;;;;;;5070325;28;20560;-74
2022/09/18 04:51:14;;;;;;;6.53;1.20;;;10.80;99.90;;;;;;5064230;28;20056;-74
2022/09/18 04:53:40;;;;;;;6.07;1.10;;;10.80;99.90;;;;;;5084070;28;20036;-74
2022/09/18 04:56:06;;;;;;;7.65;1.33;;;10.80;99.90;;;;;;5082493;28;20036;-73
2022/09/18 04:58:32;;;;;;;4.45;1.02;;;10.80;99.90;;;;;;5083136;28;20043;-74
2022/09/18 05:00:57;;;;;;;6.88;1.45;;;10.80;99.90;;;;;;5081430;28;20452;-75
2022/09/18 05:03:23;;;;;;;7.82;1.35;;;10.80;99.90;;;;;;5085044;28;20052;-74
2022/09/18 05:05:49;;;;;;;5.68;1.20;;;10.90;99.90;;;;;;5066667;28;20097;-73
2022/09/18 05:08:15;;;;;;;6.85;1.25;;;10.90;99.90;;;;;;5082301;28;20407;-73
2022/09/18 05:10:41;;;;;;;7.18;1.38;;;10.90;99.90;;;;;;5084766;28;20040;-74
2022/09/18 05:13:07;;;;;;;6.55;1.40;;;10.90;99.90;;;;;;5082585;28;20076;-72
2022/09/18 05:15:33;;;;;;;5.28;1.17;;;10.90;99.90;;;;;;5084338;28;20079;-72
2022/09/18 05:18:00;;;;;;;5.72;1.50;;;10.90;99.90;;;;;;5084024;28;20491;-72
2022/09/18 05:20:27;;;;;;;4.57;1.00;;;10.80;99.90;;;;;;5064993;28;20432;-74
2022/09/18 05:22:53;;;;;;;7.88;1.23;;;10.90;99.90;;;;;;5088359;28;20765;-75
2022/09/18 05:25:22;;;;;;;3.63;1.10;;;10.90;99.90;;;;;;5087415;28;20076;-72
2022/09/18 05:28:00;;;;;;;4.55;1.23;;;10.80;99.90;;;;;;5087257;28;20040;-73
2022/09/18 05:30:26;;;;;;;5.20;1.13;;;10.80;99.90;;;;;;5081058;28;20044;-73
2022/09/18 05:33:03;;;;;;;3.55;0.95;;;10.80;99.90;;;;;;5088487;28;20032;-73
2022/09/18 05:35:32;;;;;;;7.93;1.40;;;10.80;99.90;;;;;;5086130;28;20564;-72
2022/09/18 05:37:57;;;;;;;6.07;1.17;;;10.80;99.90;;;;;;5083920;28;20078;-73
2022/09/18 05:40:25;;;;;;;7.07;1.00;;;10.80;99.90;;;;;;5052632;28;20497;-73
2022/09/18 05:42:52;;;;;;;9.73;1.65;;;10.80;99.90;;;;;;5088300;28;20390;-72
2022/09/18 05:45:19;;;;;;;5.18;0.95;;;10.80;99.90;;;;;;5087356;28;20051;-74
2022/09/18 05:47:54;;;;;;;4.13;1.02;;;10.80;99.90;;;;;;5082639;28;20039;-76
2022/09/18 05:50:20;;;;;;;7.13;1.00;;;10.80;99.90;;;;;;5087995;28;20036;-74
2022/09/18 05:52:46;;;;;;;4.68;1.00;;;10.90;99.90;;;;;;5087378;28;20043;-74
2022/09/18 05:55:12;;;;;;;6.20;1.00;;;10.90;99.90;;;;;;5085973;28;20043;-74
2022/09/18 05:57:37;;;;;;;3.80;1.10;;;10.80;99.90;;;;;;5086870;28;20041;-74
2022/09/18 06:00:04;;;;;;;5.90;1.23;;;10.90;99.90;;;;;;5084252;28;20047;-74
2022/09/18 06:02:30;;;;;;;4.35;1.00;;;10.90;99.90;;;;;;5085377;28;20067;-73
2022/09/18 06:04:55;;;;;;;6.43;1.00;;;10.90;99.90;;;;;;5083786;28;20113;-73
2022/09/18 06:07:21;;;;;;;4.80;1.10;;;10.90;99.90;;;;;;5086590;28;20051;-72
2022/09/18 06:09:47;;;;;;;6.07;1.17;;;10.90;99.90;;;;;;5083769;28;20499;-74
2022/09/18 06:12:12;;;;;;;6.80;1.10;;;10.90;99.90;;;;;;5086537;28;20040;-73
2022/09/18 06:14:38;;;;;;;4.80;1.00;;;11.00;99.90;;;;;;5089031;28;20028;-72
2022/09/18 06:17:03;;;;;;;6.00;0.95;;;10.90;99.90;;;;;;5087779;28;20093;-72
2022/09/18 06:19:30;;;;;;;5.20;1.17;;;10.90;99.90;;;;;;5085827;28;20119;-72
2022/09/18 06:21:56;;;;;;;5.05;0.80;;;11.00;99.90;;;;;;5086332;28;20047;-71
2022/09/18 06:24:21;;;;;;;4.93;1.10;;;11.00;99.90;;;;;;5083780;28;20036;-71
2022/09/18 06:26:48;;;;;;;5.15;0.93;;;11.00;99.90;;;;;;5064526;28;20506;-72
2022/09/18 06:29:14;;;;;;;5.55;0.77;;;11.00;99.90;;;;;;5084501;28;20126;-72
2022/09/18 06:31:39;;;;;;;5.43;1.00;;;11.00;99.90;;;;;;5070971;28;20120;-72
2022/09/18 06:34:05;;;;;;;6.68;1.08;;;11.00;99.90;;;;;;5066491;28;20595;-73
2022/09/18 06:36:30;;;;;;;2.75;0.68;;;11.00;99.90;;;;;;5084479;28;20044;-72
2022/09/18 06:38:56;;;;;;;5.32;1.20;;;11.00;99.90;;;;;;5082375;28;20514;-75
2022/09/18 06:41:23;;;;;;;4.43;0.93;;;11.00;99.90;;;;;;5085365;28;20044;-72
2022/09/18 06:43:51;;;;;;;6.05;0.88;;;11.00;99.90;;;;;;5080898;28;20103;-74
2022/09/18 06:46:17;;;;;;;2.83;1.05;;;11.10;99.90;;;;;;5072291;28;20070;-73
2022/09/18 06:48:42;;;;;;;5.57;0.93;;;11.10;99.90;;;;;;5084618;28;20071;-72
2022/09/18 06:51:08;;;;;;;4.38;0.98;;;11.10;99.90;;;;;;5050785;28;20489;-74
2022/09/18 06:53:34;;;;;;;4.45;1.10;;;11.10;99.90;;;;;;5083361;28;20514;-76
2022/09/18 06:56:02;;;;;;;5.97;1.23;;;11.10;99.90;;;;;;5082644;28;20048;-73
2022/09/18 06:58:27;;;;;;;6.18;1.52;;;11.10;99.90;;;;;;5086401;28;20466;-75
2022/09/18 07:00:53;;;;;;;3.95;0.75;;;11.10;99.90;;;;;;5082320;28;20065;-72
2022/09/18 07:03:19;;;;;;;4.72;0.88;;;11.10;99.90;;;;;;5081263;28;20494;-72
2022/09/18 07:05:44;;;;;;;3.25;0.93;;;11.10;99.90;;;;;;5080775;28;20036;-73
2022/09/18 07:08:11;;;;;;;3.97;0.98;;;11.10;99.90;;;;;;5086525;28;20044;-72
2022/09/18 07:10:37;;;;;;;5.03;0.95;;;11.20;99.90;;;;;;5082850;28;20036;-73
2022/09/18 07:13:03;;;;;;;3.10;0.57;;;11.20;99.90;;;;;;5083419;28;20039;-72
2022/09/18 07:15:30;;;;;;;2.45;0.73;;;11.20;99.90;;;;;;5084201;28;20040;-71
2022/09/18 07:18:00;;;;;;;6.03;1.15;;;11.20;99.90;;;;;;5085440;28;20496;-73
2022/09/18 07:20:26;;;;;;;6.53;1.02;;;11.20;99.90;;;;;;5063046;28;20036;-72
2022/09/18 07:22:57;;;;;;;6.05;0.95;;;11.20;99.90;;;;;;5085105;28;20391;-74
2022/09/18 07:25:24;;;;;;;5.38;0.90;;;11.20;99.90;;;;;;5079951;28;20037;-73
2022/09/18 07:27:50;;;;;;;4.28;0.75;;;11.20;99.90;;;;;;5078962;28;20035;-71
2022/09/18 07:30:17;;;;;;;4.22;1.00;;;11.20;99.90;;;;;;5079157;28;20036;-72
2022/09/18 07:32:43;;;;;;;4.80;0.98;;;11.20;99.90;;;;;;5083541;28;20043;-77
2022/09/18 07:35:10;;;;;;;6.30;0.95;;;;;;;;;;5081278;28;20144;-70
2022/09/18 07:37:37;;;;;;;4.10;0.98;;;11.40;99.90;;;;;;5079012;28;20051;-73
2022/09/18 07:40:07;;;;;;;6.85;0.98;;;11.30;99.90;;;;;;5061085;28;20154;-72
2022/09/18 07:42:33;;;;;;;3.67;1.10;;;11.30;99.90;;;;;;5065274;28;20109;-72
2022/09/18 07:44:59;;;;;;;4.13;1.02;;;11.30;99.90;;;;;;5057694;28;20041;-73
2022/09/18 07:47:24;;;;;;;5.60;1.85;;;11.30;99.90;;;;;;5060941;28;20028;-73
2022/09/18 07:49:50;;;;;;;8.85;1.70;;;11.30;99.90;;;;;;5059525;28;20187;-72
2022/09/18 07:52:16;;;;;;;3.97;1.40;;;11.40;99.90;;;;;;5061882;28;20037;-71
2022/09/18 07:54:42;;;;;;;6.78;1.40;;;11.40;99.90;;;;;;5061266;28;20053;-70
2022/09/18 07:57:07;;;;;;;4.20;1.17;;;11.40;99.90;;;;;;5060680;28;20397;-70
2022/09/18 07:59:33;;;;;;;5.75;1.35;;;11.50;99.90;;;;;;5061355;28;20033;-69
2022/09/18 08:01:58;;;;;;;4.63;1.13;;;11.50;99.90;;;;;;5060698;28;20032;-70
2022/09/18 08:04:24;;;;;;;5.28;1.35;;;11.50;99.90;;;;;;5059823;28;20048;-70
2022/09/18 08:06:53;;;;;;;4.60;1.08;;;11.50;99.90;;;;;;5062521;28;20116;-69
2022/09/18 08:09:24;;;;;;;7.40;1.25;;;11.40;99.90;;;;;;5067003;28;20048;-70
2022/09/18 08:11:51;;;;;;;4.75;1.20;;;11.50;99.90;;;;;;5065725;28;20119;-69
2022/09/18 08:14:16;;;;;;;7.93;1.75;;;11.50;99.90;;;;;;5069848;28;20071;-69
2022/09/18 08:16:42;;;;;;;5.38;1.13;;;11.50;99.90;;;;;;5067357;28;20037;-69
2022/09/18 08:19:08;;;;;;;6.75;1.33;;;11.50;99.90;;;;;;5058154;28;20036;-69
2022/09/18 08:21:33;;;;;;;3.90;1.02;;;11.50;99.90;;;;;;5067947;28;20119;-69
2022/09/18 08:23:59;;;;;;;6.88;1.23;;;11.40;99.90;;;;;;5069176;28;20070;-69
2022/09/18 08:26:25;;;;;;;5.10;1.02;;;11.50;99.90;;;;;;5071516;28;20049;-69
2022/09/18 08:28:50;;;;;;;4.93;1.08;;;11.40;99.90;;;;;;5057050;28;20074;-69
2022/09/18 08:31:16;;;;;;;5.00;1.05;;;11.40;99.90;;;;;;5068343;28;20092;-70
2022/09/18 08:33:42;;;;;;;5.18;0.80;;;11.30;99.90;;;;;;5062698;28;20036;-70
2022/09/18 08:36:07;;;;;;;4.28;1.00;;;11.30;99.90;;;;;;5062307;28;20051;-70
2022/09/18 08:38:33;;;;;;;5.47;1.10;;;11.30;99.90;;;;;;5068332;28;20466;-71
2022/09/18 08:41:24;;;;;;;4.65;1.08;;;11.40;99.90;;;;;;5087659;28;20040;-70
2022/09/18 08:44:09;;;;;;;5.18;1.25;;;11.40;99.90;;;;;;5081418;28;20032;-70
2022/09/18 08:46:48;;;;;;;5.80;1.23;;;11.40;99.90;;;;;;5082408;28;20051;-69
2022/09/18 08:49:19;;;;;;;4.90;1.05;;;11.50;99.90;;;;;;5088299;28;20479;-69
2022/09/18 08:52:02;;;;;;;6.32;0.80;;;11.50;99.90;;;;;;5088040;28;20076;-69
2022/09/18 08:54:37;;;;;;;3.17;0.90;;;11.60;99.90;;;;;;5078603;28;20540;-70
2022/09/18 08:57:11;;;;;;;3.50;1.00;;;11.70;99.90;;;;;;5086377;28;20052;-71
2022/09/18 08:59:43;;;;;;;4.80;1.10;;;11.70;99.90;;;;;;5075402;28;20052;-69
2022/09/18 09:02:22;;;;;;;3.83;1.00;;;11.70;99.90;;;;;;5089783;28;20493;-69
2022/09/18 09:04:48;;;;;;;5.68;0.98;;;11.90;99.90;;;;;;5088784;28;20067;-70
2022/09/18 09:07:56;;;;;;;4.25;1.00;;;11.90;99.90;;;;;;5076414;28;20511;-69
2022/09/18 09:10:54;;;;;;;2.78;0.75;;;11.90;99.90;;;;;;5064036;28;20151;-69
2022/09/18 09:13:39;;;;;;;6.55;1.30;;;12.00;99.90;;;;;;5089096;28;20043;-70
2022/09/18 09:16:26;;;;;;;4.03;0.95;;;12.00;99.90;;;;;;5085856;28;20509;-70
2022/09/18 09:19:17;;;;;;;4.82;1.20;;;12.00;99.90;;;;;;5087039;28;20050;-69
2022/09/18 09:21:57;;;;;;;5.75;1.10;;;12.00;99.90;;;;;;5092745;28;20356;-70
2022/09/18 09:24:38;;;;;;;6.60;1.02;;;12.10;99.90;;;;;;5091417;28;20040;-70
2022/09/18 09:27:29;;;;;;;3.95;1.00;;;12.10;99.90;;;;;;5090614;28;20044;-69
2022/09/18 09:30:04;;;;;;;2.60;0.90;;;12.00;99.90;;;;;;5092051;28;20513;-70
2022/09/18 09:32:54;;;;;;;4.05;1.00;;;12.10;99.90;;;;;;5090428;28;20036;-70
2022/09/18 09:35:37;;;;;;;3.90;0.90;;;12.00;99.90;;;;;;5088589;28;20051;-71
2022/09/18 09:38:29;;;;;;;4.68;0.98;;;12.00;99.90;;;;;;5092305;28;20044;-70
2022/09/18 09:40:57;;;;;;;6.97;1.20;;;12.00;99.90;;;;;;5087189;28;20538;-71
2022/09/18 09:43:37;;;;;;;3.80;1.00;;;12.00;99.90;;;;;;5085656;28;20131;-71
2022/09/18 09:46:30;;;;;;;1.15;0.50;;;12.00;99.90;;;;;;5086262;28;20044;-70
2022/09/18 09:49:03;;;;;;;4.50;0.70;;;12.00;99.90;;;;;;5082992;28;20144;-71
2022/09/18 09:51:37;;;;;;;2.70;0.82;;;11.90;99.90;;;;;;5055242;28;20051;-70
2022/09/18 09:54:09;;;;;;;3.17;0.70;;;11.90;99.90;;;;;;5066619;28;20079;-75
2022/09/18 09:56:47;;;;;;;5.93;0.80;;;11.90;99.90;;;;;;5092565;28;20040;-72
2022/09/18 09:59:15;;;;;;;0.93;0.60;;;11.90;99.90;;;;;;5072869;28;20408;-72
2022/09/18 10:01:57;;;;;;;2.50;0.90;;;11.90;99.90;;;;;;5085934;28;20044;-71
2022/09/18 10:04:45;;;;;;;2.22;0.70;;;11.80;99.90;;;;;;5092652;28;20079;-71
2022/09/18 10:07:20;;;;;;;1.75;0.60;;;11.80;99.90;;;;;;5086320;28;20518;-70
2022/09/18 10:09:56;;;;;;;3.45;0.65;;;11.80;99.90;;;;;;5086688;28;20156;-72
2022/09/18 10:12:43;;;;;;;4.10;0.70;;;11.80;99.90;;;;;;5089341;28;20047;-71
2022/09/18 10:15:37;;;;;;;3.77;1.00;;;11.80;99.90;;;;;;5089285;28;20051;-71
2022/09/18 10:18:06;;;;;;;2.53;0.60;;;11.70;99.90;;;;;;5088118;28;20059;-70
2022/09/18 10:20:34;;;;;;;4.15;0.80;;;11.70;99.90;;;;;;5089507;28;20472;-72
2022/09/18 10:23:13;;;;;;;2.35;0.70;;;11.80;99.90;;;;;;5090729;28;20111;-73
2022/09/18 10:25:48;;;;;;;3.60;0.63;;;11.80;99.90;;;;;;5088095;28;20519;-71
2022/09/18 10:28:14;;;;;;;2.83;0.75;;;11.80;99.90;;;;;;5089689;28;20052;-68
2022/09/18 10:30:57;;;;;;;2.88;0.70;;;11.80;99.90;;;;;;5089346;28;20040;-71
2022/09/18 10:33:39;;;;;;;2.67;0.85;;;11.80;99.90;;;;;;5086524;28;20124;-72
2022/09/18 10:36:30;;;;;;;3.40;0.90;;;11.80;99.90;;;;;;5083126;28;20051;-71
2022/09/18 10:38:58;;;;;;;4.13;0.80;;;11.80;99.90;;;;;;5091575;28;20052;-71
2022/09/18 10:41:33;;;;;;;4.25;0.70;;;11.90;99.90;;;;;;5073704;28;20051;-71
2022/09/18 10:44:21;;;;;;;3.95;0.70;;;12.00;99.90;;;;;;5094277;28;20112;-71
2022/09/18 10:46:55;;;;;;;;;;;12.10;99.90;;;;;;5094470;28;20040;-70
2022/09/18 10:49:28;;;;;;;4.47;0.77;;;12.00;99.90;;;;;;5092258;28;19920;-71
2022/09/18 10:52:32;;;;;;;4.78;0.93;;;12.10;99.90;;;;;;5089207;28;20505;-72
2022/09/18 10:55:08;;;;;;;5.03;1.33;;;12.20;99.90;;;;;;5063544;28;20048;-71
2022/09/18 10:57:44;;;;;;;4.40;0.90;;;12.20;99.90;;;;;;5083803;28;20351;-71
2022/09/18 11:00:19;;;;;;;5.18;0.80;;;12.10;99.90;;;;;;5086727;28;20047;-71
2022/09/18 11:03:00;;;;;;;4.82;1.08;;;12.20;99.90;;;;;;5085678;28;20036;-71
2022/09/18 11:05:35;;;;;;;5.35;1.10;;;12.20;99.90;;;;;;5059151;28;20040;-71
2022/09/18 11:08:13;;;;;;;5.15;0.70;;;12.30;99.90;;;;;;5093588;28;20046;-71
2022/09/18 11:10:38;;;;;;;1.38;0.52;;;12.30;99.90;;;;;;5073918;28;20036;-71
2022/09/18 11:13:04;;;;;;;6.57;1.10;;;12.40;99.90;;;;;;5055917;28;20135;-71
2022/09/18 11:15:33;;;;;;;4.38;0.75;;;12.30;99.90;;;;;;5090267;28;20086;-71
2022/09/18 11:18:04;;;;;;;3.97;0.95;;;12.30;99.90;;;;;;5075618;28;20123;-71
2022/09/18 11:20:37;;;;;;;4.35;1.08;;;12.40;99.90;;;;;;5092958;28;20083;-71
2022/09/18 11:23:18;;;;;;;4.65;0.80;;;12.40;99.90;;;;;;5083183;28;20036;-71
2022/09/18 11:25:47;;;;;;;2.80;0.93;;;12.50;99.90;;;;;;5093745;28;20047;-70
2022/09/18 11:28:27;;;;;;;5.68;0.98;;;13.70;99.90;;;;;;5090004;28;20043;-70
2022/09/18 11:31:02;;;;;;;4.28;0.90;;;12.40;99.90;;;;;;5092017;28;20044;-71
2022/09/18 11:33:41;;;;;;;5.97;1.00;;;12.40;99.90;;;;;;5090130;28;20044;-70
2022/09/18 11:36:10;;;;;;;6.03;1.00;;;12.40;99.90;;;;;;5085051;28;20058;-71
2022/09/18 11:38:45;;;;;;;5.28;1.00;;;12.60;99.90;;;;;;5092445;28;20052;-70
2022/09/18 11:41:12;;;;;;;5.95;1.20;;;12.50;99.90;;;;;;5085874;28;20052;-70
2022/09/18 11:43:40;;;;;;;6.53;1.38;;;12.60;99.90;;;;;;5093171;28;20452;-70
2022/09/18 11:46:26;;;;;;;4.72;1.02;;;12.70;99.90;;;;;;5093027;28;20051;-71
2022/09/18 11:49:00;;;;;;;4.05;1.05;;;12.70;99.90;;;;;;5092181;28;20485;-70
2022/09/18 11:51:57;;;;;;;4.13;1.05;;;12.70;99.90;;;;;;5091827;28;20051;-70
2022/09/18 11:54:53;;;;;;;4.95;1.20;;;12.80;99.90;;;;;;5091913;28;20063;-71
2022/09/18 11:57:34;;;;;;;4.80;1.20;;;12.80;99.90;;;;;;5083810;28;20083;-70
2022/09/18 12:00:05;;;;;;;4.65;1.00;;;12.90;99.90;;;;;;5072937;28;20043;-70
2022/09/18 12:02:49;;;;;;;4.78;1.10;;;12.90;99.90;;;;;;5093059;28;20549;-70
2022/09/18 12:06:04;;;;;;;7.63;1.45;;;13.00;99.90;;;;;;5092190;28;20115;-69
2022/09/18 12:08:49;;;;;;;5.60;1.10;;;13.00;99.90;;;;;;5046268;28;20045;-70
2022/09/18 12:11:23;;;;;;;4.47;1.02;;;12.00;99.90;;;;;;5066240;28;20047;-70
2022/09/18 12:14:18;;;;;;;5.90;1.13;;;13.10;99.90;;;;;;5092764;28;20048;-70
2022/09/18 12:16:59;;;;;;;5.28;1.00;;;13.20;99.90;;;;;;5092255;28;20036;-70
2022/09/18 12:19:37;;;;;;;6.07;1.30;;;13.20;99.90;;;;;;5092864;28;20040;-70
2022/09/18 12:22:13;;;;;;;4.47;1.00;;;13.30;99.90;;;;;;5073459;28;20050;-71
2022/09/18 12:24:39;;;;;;;6.70;0.95;;;13.50;99.90;;;;;;5072028;28;20078;-70
2022/09/18 12:27:35;;;;;;;4.90;1.20;;;13.50;99.90;;;;;;5088377;28;20040;-70
2022/09/18 12:30:08;;;;;;;6.50;1.30;;;13.60;99.90;;;;;;5092178;28;20620;-70
2022/09/18 12:32:53;;;;;;;8.40;1.00;;;13.70;99.90;;;;;;5095828;28;20494;-71
2022/09/18 12:35:18;;;;;;;4.25;0.93;;;13.80;99.90;;;;;;5098476;28;20520;-71
2022/09/18 12:37:47;;;;;;;5.43;0.98;;;13.80;99.90;;;;;;5095396;28;20040;-71
2022/09/18 12:40:24;;;;;;;5.80;1.20;;;13.80;99.90;;;;;;5076626;28;20044;-71
2022/09/18 12:43:00;;;;;;;3.70;1.17;;;13.90;99.90;;;;;;5084910;28;20044;-70
2022/09/18 12:45:55;;;;;;;3.55;0.93;;;13.90;99.90;;;;;;5094264;28;20371;-71
2022/09/18 12:48:27;;;;;;;6.05;1.38;;;14.00;99.90;;;;;;5091487;28;20044;-70
2022/09/18 12:51:25;;;;;;;4.05;1.42;;;14.10;99.90;;;;;;5092691;28;20047;-70
2022/09/18 12:54:12;;;;;;;7.88;1.27;;;14.10;99.90;;;;;;5093728;28;20040;-71
2022/09/18 12:57:05;;;;;;;6.75;1.55;;;14.20;99.90;;;;;;5087153;28;20115;-70
2022/09/18 12:59:49;;;;;;;5.18;1.13;;;14.20;99.90;;;;;;5093935;28;20494;-70
2022/09/18 13:02:22;;;;;;;4.90;0.90;;;14.20;99.90;;;;;;5091527;28;20394;-70
2022/09/18 13:05:12;;;;;;;4.35;1.20;;;14.20;99.90;;;;;;5096964;28;20050;-70
2022/09/18 13:07:49;;;;;;;6.10;1.10;;;14.10;99.90;;;;;;5091667;28;20056;-71
2022/09/18 13:10:38;;;;;;;6.43;1.10;;;14.10;99.90;;;;;;5094833;28;20040;-70
2022/09/18 13:13:48;;;;;;;7.13;1.30;;;14.10;99.90;;;;;;5087878;28;20050;-70
2022/09/18 13:16:44;;;;;;;7.45;1.27;;;14.10;99.90;;;;;;5088714;28;20063;-70